sensor_id;sensor_type;location;lat;lon;timestamp;P1;durP1;ratioP1;P2;durP2;ratioP2
3613;SDS011;1821;50.936;6.854;2022-09-16T00:00:11;5.05;;;1.63;;
3613;SDS011;1821;50.936;6.854;2022-09-16T00:00:53;5.85;;;1.67;;
3613;SDS011;1821;50.936;6.854;2022-09-16T00:01:35;5.13;;;1.73;;
3613;SDS011;1821;50.936;6.854;2022-09-16T00:02:17;4.32;;;1.38;;
3613;SDS011;1821;50.936;6.854;2022-09-16T00:02:59;5.28;;;2.00;;
3613;SDS011;1821;50.936;6.854;2022-09-16T00:03:40;9.07;;;1.90;;
3613;SDS011;1821;50.936;6.854;2022-09-16T00:04:24;7.85;;;1.92;;
3613;SDS011;1821;50.936;6.854;2022-09-16T00:05:05;4.65;;;1.60;;
3613;SDS011;1821;50.936;6.854;2022-09-16T00:05:49;7.18;;;2.10;;
3613;SDS011;1821;50.936;6.854;2022-09-16T00:06:32;6.95;;;1.70;;
3613;SDS011;1821;50.936;6.854;2022-09-16T00:07:14;4.53;;;1.70;;
3613;SDS011;1821;50.936;6.854;2022-09-16T00:07:55;2.78;;;1.60;;
3613;SDS011;1821;50.936;6.854;2022-09-16T00:08:37;3.90;;;1.52;;
3613;SDS011;1821;50.936;6.854;2022-09-16T00:09:20;4.25;;;1.65;;
3613;SDS011;1821;50.936;6.854;2022-09-16T00:10:03;3.40;;;1.50;;
3613;SDS011;1821;50.936;6.854;2022-09-16T00:10:46;4.45;;;1.70;;
3613;SDS011;1821;50.936;6.854;2022-09-16T00:11:30;4.95;;;1.90;;
3613;SDS011;1821;50.936;6.854;2022-09-16T00:12:14;4.95;;;1.80;;
3613;SDS011;1821;50.936;6.854;2022-09-16T00:12:56;7.28;;;1.90;;
3613;SDS011;1821;50.936;6.854;2022-09-16T00:13:37;7.10;;;1.83;;
3613;SDS011;1821;50.936;6.854;2022-09-16T00:14:19;6.95;;;1.70;;
3613;SDS011;1821;50.936;6.854;2022-09-16T00:15:01;4.82;;;1.83;;
3613;SDS011;1821;50.936;6.854;2022-09-16T00:15:44;6.10;;;1.98;;
3613;SDS011;1821;50.936;6.854;2022-09-16T00:16:28;5.45;;;1.70;;
3613;SDS011;1821;50.936;6.854;2022-09-16T00:17:10;4.50;;;1.90;;
3613;SDS011;1821;50.936;6.854;2022-09-16T00:17:51;4.75;;;1.50;;
3613;SDS011;1821;50.936;6.854;2022-09-16T00:18:33;7.17;;;1.60;;
3613;SDS011;1821;50.936;6.854;2022-09-16T00:19:15;2.95;;;1.30;;
3613;SDS011;1821;50.936;6.854;2022-09-16T00:19:57;4.07;;;1.73;;
3613;SDS011;1821;50.936;6.854;2022-09-16T00:20:45;4.72;;;1.80;;
3613;SDS011;1821;50.936;6.854;2022-09-16T00:21:29;4.63;;;1.60;;
3613;SDS011;1821;50.936;6.854;2022-09-16T00:22:11;4.07;;;1.80;;
3613;SDS011;1821;50.936;6.854;2022-09-16T00:22:53;4.53;;;1.80;;
3613;SDS011;1821;50.936;6.854;2022-09-16T00:23:35;5.93;;;2.08;;
3613;SDS011;1821;50.936;6.854;2022-09-16T00:24:17;7.40;;;2.10;;
3613;SDS011;1821;50.936;6.854;2022-09-16T00:24:58;7.70;;;2.00;;
3613;SDS011;1821;50.936;6.854;2022-09-16T00:25:40;6.10;;;1.83;;
3613;SDS011;1821;50.936;6.854;2022-09-16T00:26:22;4.88;;;2.20;;
3613;SDS011;1821;50.936;6.854;2022-09-16T00:27:04;6.20;;;2.60;;
3613;SDS011;1821;50.936;6.854;2022-09-16T00:27:46;5.25;;;1.95;;
3613;SDS011;1821;50.936;6.854;2022-09-16T00:28:29;6.85;;;2.25;;
3613;SDS011;1821;50.936;6.854;2022-09-16T00:29:11;6.90;;;2.80;;
3613;SDS011;1821;50.936;6.854;2022-09-16T00:29:52;5.47;;;1.90;;
3613;SDS011;1821;50.936;6.854;2022-09-16T00:30:34;5.80;;;2.03;;
3613;SDS011;1821;50.936;6.854;2022-09-16T00:31:16;5.45;;;1.80;;
3613;SDS011;1821;50.936;6.854;2022-09-16T00:31:58;5.97;;;1.70;;
3613;SDS011;1821;50.936;6.854;2022-09-16T00:32:40;4.13;;;1.70;;
3613;SDS011;1821;50.936;6.854;2022-09-16T00:33:21;4.20;;;1.60;;
3613;SDS011;1821;50.936;6.854;2022-09-16T00:34:03;5.22;;;1.90;;
3613;SDS011;1821;50.936;6.854;2022-09-16T00:34:45;6.07;;;1.95;;
3613;SDS011;1821;50.936;6.854;2022-09-16T00:35:26;4.82;;;1.67;;
3613;SDS011;1821;50.936;6.854;2022-09-16T00:36:12;3.45;;;1.70;;
3613;SDS011;1821;50.936;6.854;2022-09-16T00:36:56;4.97;;;1.85;;
3613;SDS011;1821;50.936;6.854;2022-09-16T00:37:38;4.63;;;1.50;;
3613;SDS011;1821;50.936;6.854;2022-09-16T00:38:19;4.50;;;1.70;;
3613;SDS011;1821;50.936;6.854;2022-09-16T00:39:01;5.43;;;1.50;;
3613;SDS011;1821;50.936;6.854;2022-09-16T00:39:43;5.57;;;1.60;;
3613;SDS011;1821;50.936;6.854;2022-09-16T00:40:24;5.65;;;1.80;;
3613;SDS011;1821;50.936;6.854;2022-09-16T00:41:06;7.80;;;2.03;;
3613;SDS011;1821;50.936;6.854;2022-09-16T00:41:49;3.72;;;2.00;;
3613;SDS011;1821;50.936;6.854;2022-09-16T00:42:35;6.30;;;1.83;;
3613;SDS011;1821;50.936;6.854;2022-09-16T00:43:18;4.55;;;1.60;;
3613;SDS011;1821;50.936;6.854;2022-09-16T00:44:04;4.65;;;1.75;;
3613;SDS011;1821;50.936;6.854;2022-09-16T00:45:34;6.18;;;1.75;;
3613;SDS011;1821;50.936;6.854;2022-09-16T00:46:17;5.80;;;1.80;;
3613;SDS011;1821;50.936;6.854;2022-09-16T00:47:03;7.10;;;1.90;;
3613;SDS011;1821;50.936;6.854;2022-09-16T00:47:58;6.32;;;2.03;;
3613;SDS011;1821;50.936;6.854;2022-09-16T00:48:43;8.25;;;2.10;;
3613;SDS011;1821;50.936;6.854;2022-09-16T00:49:28;5.15;;;1.80;;
3613;SDS011;1821;50.936;6.854;2022-09-16T00:50:22;7.05;;;2.08;;
3613;SDS011;1821;50.936;6.854;2022-09-16T00:51:18;6.90;;;1.88;;
3613;SDS011;1821;50.936;6.854;2022-09-16T00:52:01;6.57;;;2.00;;
3613;SDS011;1821;50.936;6.854;2022-09-16T00:52:45;6.80;;;1.98;;
3613;SDS011;1821;50.936;6.854;2022-09-16T00:53:33;9.45;;;2.08;;
3613;SDS011;1821;50.936;6.854;2022-09-16T00:54:26;5.38;;;2.10;;
3613;SDS011;1821;50.936;6.854;2022-09-16T00:55:09;5.10;;;2.30;;
3613;SDS011;1821;50.936;6.854;2022-09-16T00:55:55;6.03;;;1.60;;
3613;SDS011;1821;50.936;6.854;2022-09-16T00:56:40;5.57;;;1.83;;
3613;SDS011;1821;50.936;6.854;2022-09-16T00:57:26;5.97;;;2.00;;
3613;SDS011;1821;50.936;6.854;2022-09-16T00:59:14;5.68;;;2.03;;
3613;SDS011;1821;50.936;6.854;2022-09-16T01:00:05;3.53;;;1.80;;
3613;SDS011;1821;50.936;6.854;2022-09-16T01:00:49;5.68;;;1.77;;
3613;SDS011;1821;50.936;6.854;2022-09-16T01:01:31;7.68;;;1.88;;
3613;SDS011;1821;50.936;6.854;2022-09-16T01:02:15;6.22;;;2.15;;
3613;SDS011;1821;50.936;6.854;2022-09-16T01:02:59;5.05;;;2.10;;
3613;SDS011;1821;50.936;6.854;2022-09-16T01:03:43;4.55;;;1.80;;
3613;SDS011;1821;50.936;6.854;2022-09-16T01:04:30;5.03;;;1.85;;
3613;SDS011;1821;50.936;6.854;2022-09-16T01:05:16;4.30;;;1.77;;
3613;SDS011;1821;50.936;6.854;2022-09-16T01:06:02;5.90;;;1.90;;
3613;SDS011;1821;50.936;6.854;2022-09-16T01:06:44;6.95;;;2.50;;
3613;SDS011;1821;50.936;6.854;2022-09-16T01:07:37;5.30;;;1.88;;
3613;SDS011;1821;50.936;6.854;2022-09-16T01:08:27;5.32;;;2.03;;
3613;SDS011;1821;50.936;6.854;2022-09-16T01:09:08;6.00;;;1.80;;
3613;SDS011;1821;50.936;6.854;2022-09-16T01:09:50;5.05;;;2.00;;
3613;SDS011;1821;50.936;6.854;2022-09-16T01:10:32;5.32;;;2.20;;
3613;SDS011;1821;50.936;6.854;2022-09-16T01:11:14;5.88;;;2.70;;
3613;SDS011;1821;50.936;6.854;2022-09-16T01:11:56;8.30;;;2.35;;
3613;SDS011;1821;50.936;6.854;2022-09-16T01:12:38;5.90;;;2.00;;
3613;SDS011;1821;50.936;6.854;2022-09-16T01:13:21;7.00;;;1.90;;
3613;SDS011;1821;50.936;6.854;2022-09-16T01:14:03;4.93;;;1.70;;
3613;SDS011;1821;50.936;6.854;2022-09-16T01:15:05;9.27;;;2.25;;
3613;SDS011;1821;50.936;6.854;2022-09-16T01:15:52;8.10;;;2.50;;
3613;SDS011;1821;50.936;6.854;2022-09-16T01:16:39;6.00;;;1.90;;
3613;SDS011;1821;50.936;6.854;2022-09-16T01:17:27;7.53;;;1.80;;
3613;SDS011;1821;50.936;6.854;2022-09-16T01:24:59;5.95;;;1.85;;
3613;SDS011;1821;50.936;6.854;2022-09-16T01:27:28;6.50;;;1.80;;
3613;SDS011;1821;50.936;6.854;2022-09-16T01:30:03;7.30;;;2.47;;
3613;SDS011;1821;50.936;6.854;2022-09-16T01:31:59;8.35;;;2.08;;
3613;SDS011;1821;50.936;6.854;2022-09-16T01:33:48;6.63;;;1.77;;
3613;SDS011;1821;50.936;6.854;2022-09-16T01:38:27;4.00;;;1.80;;
3613;SDS011;1821;50.936;6.854;2022-09-16T01:39:28;6.07;;;2.20;;
3613;SDS011;1821;50.936;6.854;2022-09-16T01:40:21;5.70;;;1.92;;
3613;SDS011;1821;50.936;6.854;2022-09-16T01:44:06;5.82;;;2.28;;
3613;SDS011;1821;50.936;6.854;2022-09-16T01:45:54;7.70;;;2.10;;
3613;SDS011;1821;50.936;6.854;2022-09-16T01:46:42;7.40;;;2.10;;
3613;SDS011;1821;50.936;6.854;2022-09-16T01:48:42;7.30;;;2.10;;
3613;SDS011;1821;50.936;6.854;2022-09-16T01:49:42;5.95;;;2.58;;
3613;SDS011;1821;50.936;6.854;2022-09-16T01:50:31;5.15;;;1.75;;
3613;SDS011;1821;50.936;6.854;2022-09-16T01:53:17;6.45;;;2.35;;
3613;SDS011;1821;50.936;6.854;2022-09-16T01:54:19;10.30;;;2.90;;
3613;SDS011;1821;50.936;6.854;2022-09-16T01:55:17;8.38;;;2.30;;
3613;SDS011;1821;50.936;6.854;2022-09-16T01:58:25;7.05;;;2.00;;
3613;SDS011;1821;50.936;6.854;2022-09-16T01:59:17;5.95;;;2.10;;
3613;SDS011;1821;50.936;6.854;2022-09-16T02:00:07;8.23;;;2.47;;
3613;SDS011;1821;50.936;6.854;2022-09-16T02:00:52;8.95;;;2.65;;
3613;SDS011;1821;50.936;6.854;2022-09-16T02:01:42;7.07;;;2.40;;
3613;SDS011;1821;50.936;6.854;2022-09-16T02:03:23;5.95;;;2.00;;
3613;SDS011;1821;50.936;6.854;2022-09-16T02:04:12;8.02;;;2.50;;
3613;SDS011;1821;50.936;6.854;2022-09-16T02:05:00;7.20;;;2.45;;
3613;SDS011;1821;50.936;6.854;2022-09-16T02:06:35;6.35;;;2.15;;
3613;SDS011;1821;50.936;6.854;2022-09-16T02:07:19;6.78;;;2.30;;
3613;SDS011;1821;50.936;6.854;2022-09-16T02:08:08;5.38;;;2.20;;
3613;SDS011;1821;50.936;6.854;2022-09-16T02:09:01;5.72;;;2.58;;
3613;SDS011;1821;50.936;6.854;2022-09-16T02:09:48;8.88;;;2.78;;
3613;SDS011;1821;50.936;6.854;2022-09-16T02:10:36;5.90;;;2.63;;
3613;SDS011;1821;50.936;6.854;2022-09-16T02:11:21;5.80;;;2.27;;
3613;SDS011;1821;50.936;6.854;2022-09-16T02:12:05;6.80;;;2.42;;
3613;SDS011;1821;50.936;6.854;2022-09-16T02:13:02;6.65;;;2.70;;
3613;SDS011;1821;50.936;6.854;2022-09-16T02:14:08;7.32;;;2.50;;
3613;SDS011;1821;50.936;6.854;2022-09-16T02:14:56;7.03;;;2.70;;
3613;SDS011;1821;50.936;6.854;2022-09-16T02:15:44;6.10;;;2.38;;
3613;SDS011;1821;50.936;6.854;2022-09-16T02:16:53;6.80;;;2.30;;
3613;SDS011;1821;50.936;6.854;2022-09-16T02:17:39;7.20;;;2.90;;
3613;SDS011;1821;50.936;6.854;2022-09-16T02:18:26;4.80;;;2.55;;
3613;SDS011;1821;50.936;6.854;2022-09-16T02:19:14;4.47;;;2.75;;
3613;SDS011;1821;50.936;6.854;2022-09-16T02:20:04;6.00;;;3.10;;
3613;SDS011;1821;50.936;6.854;2022-09-16T02:20:49;5.22;;;2.50;;
3613;SDS011;1821;50.936;6.854;2022-09-16T02:21:36;5.47;;;2.40;;
3613;SDS011;1821;50.936;6.854;2022-09-16T02:22:33;9.07;;;2.35;;
3613;SDS011;1821;50.936;6.854;2022-09-16T02:23:21;8.88;;;2.67;;
3613;SDS011;1821;50.936;6.854;2022-09-16T02:24:07;6.95;;;2.50;;
3613;SDS011;1821;50.936;6.854;2022-09-16T02:24:54;7.15;;;2.38;;
3613;SDS011;1821;50.936;6.854;2022-09-16T02:25:41;11.93;;;2.60;;
3613;SDS011;1821;50.936;6.854;2022-09-16T02:26:28;7.07;;;2.95;;
3613;SDS011;1821;50.936;6.854;2022-09-16T02:27:17;6.38;;;2.60;;
3613;SDS011;1821;50.936;6.854;2022-09-16T02:28:03;6.40;;;2.30;;
3613;SDS011;1821;50.936;6.854;2022-09-16T02:28:52;5.85;;;2.22;;
3613;SDS011;1821;50.936;6.854;2022-09-16T02:29:36;5.35;;;2.60;;
3613;SDS011;1821;50.936;6.854;2022-09-16T02:30:23;8.30;;;2.50;;
3613;SDS011;1821;50.936;6.854;2022-09-16T02:31:05;7.70;;;2.15;;
3613;SDS011;1821;50.936;6.854;2022-09-16T02:31:48;7.32;;;2.30;;
3613;SDS011;1821;50.936;6.854;2022-09-16T02:32:37;5.50;;;2.40;;
3613;SDS011;1821;50.936;6.854;2022-09-16T02:33:23;5.80;;;2.80;;
3613;SDS011;1821;50.936;6.854;2022-09-16T02:34:14;8.70;;;2.92;;
3613;SDS011;1821;50.936;6.854;2022-09-16T02:35:00;7.28;;;3.00;;
3613;SDS011;1821;50.936;6.854;2022-09-16T02:35:43;5.57;;;2.35;;
3613;SDS011;1821;50.936;6.854;2022-09-16T02:36:28;5.65;;;2.40;;
3613;SDS011;1821;50.936;6.854;2022-09-16T02:37:18;5.53;;;2.63;;
3613;SDS011;1821;50.936;6.854;2022-09-16T02:38:12;4.60;;;2.30;;
3613;SDS011;1821;50.936;6.854;2022-09-16T02:39:31;6.15;;;2.20;;
3613;SDS011;1821;50.936;6.854;2022-09-16T02:40:19;5.18;;;2.60;;
3613;SDS011;1821;50.936;6.854;2022-09-16T02:41:05;6.10;;;2.92;;
3613;SDS011;1821;50.936;6.854;2022-09-16T02:41:54;8.70;;;3.30;;
3613;SDS011;1821;50.936;6.854;2022-09-16T02:42:37;5.47;;;2.53;;
3613;SDS011;1821;50.936;6.854;2022-09-16T02:43:18;5.97;;;2.65;;
3613;SDS011;1821;50.936;6.854;2022-09-16T02:44:01;6.20;;;2.58;;
3613;SDS011;1821;50.936;6.854;2022-09-16T02:44:43;5.47;;;2.67;;
3613;SDS011;1821;50.936;6.854;2022-09-16T02:45:34;5.72;;;2.70;;
3613;SDS011;1821;50.936;6.854;2022-09-16T02:46:25;10.15;;;3.45;;
3613;SDS011;1821;50.936;6.854;2022-09-16T02:48:15;7.68;;;3.00;;
3613;SDS011;1821;50.936;6.854;2022-09-16T02:49:36;6.47;;;2.92;;
3613;SDS011;1821;50.936;6.854;2022-09-16T02:50:27;7.60;;;3.10;;
3613;SDS011;1821;50.936;6.854;2022-09-16T02:52:37;6.60;;;2.67;;
3613;SDS011;1821;50.936;6.854;2022-09-16T02:53:39;8.32;;;2.50;;
3613;SDS011;1821;50.936;6.854;2022-09-16T02:54:39;6.93;;;3.28;;
3613;SDS011;1821;50.936;6.854;2022-09-16T02:56:27;6.88;;;3.00;;
3613;SDS011;1821;50.936;6.854;2022-09-16T02:57:12;4.72;;;2.33;;
3613;SDS011;1821;50.936;6.854;2022-09-16T02:57:54;7.03;;;2.60;;
3613;SDS011;1821;50.936;6.854;2022-09-16T02:58:36;8.93;;;3.05;;
3613;SDS011;1821;50.936;6.854;2022-09-16T02:59:18;6.50;;;2.53;;
3613;SDS011;1821;50.936;6.854;2022-09-16T03:00:00;7.22;;;2.78;;
3613;SDS011;1821;50.936;6.854;2022-09-16T03:00:43;9.20;;;2.60;;
3613;SDS011;1821;50.936;6.854;2022-09-16T03:01:29;5.80;;;2.78;;
3613;SDS011;1821;50.936;6.854;2022-09-16T03:02:14;6.90;;;3.00;;
3613;SDS011;1821;50.936;6.854;2022-09-16T03:02:56;10.43;;;3.20;;
3613;SDS011;1821;50.936;6.854;2022-09-16T03:03:38;11.73;;;3.45;;
3613;SDS011;1821;50.936;6.854;2022-09-16T03:04:21;8.52;;;3.28;;
3613;SDS011;1821;50.936;6.854;2022-09-16T03:05:03;7.10;;;3.13;;
3613;SDS011;1821;50.936;6.854;2022-09-16T03:06:56;10.45;;;2.70;;
3613;SDS011;1821;50.936;6.854;2022-09-16T03:07:38;8.80;;;3.17;;
3613;SDS011;1821;50.936;6.854;2022-09-16T03:08:21;9.35;;;2.80;;
3613;SDS011;1821;50.936;6.854;2022-09-16T03:09:04;11.13;;;3.17;;
3613;SDS011;1821;50.936;6.854;2022-09-16T03:09:48;9.52;;;3.65;;
3613;SDS011;1821;50.936;6.854;2022-09-16T03:10:34;8.38;;;3.30;;
3613;SDS011;1821;50.936;6.854;2022-09-16T03:13:39;6.47;;;2.80;;
3613;SDS011;1821;50.936;6.854;2022-09-16T03:18:48;10.73;;;2.50;;
3613;SDS011;1821;50.936;6.854;2022-09-16T03:21:14;4.80;;;2.67;;
3613;SDS011;1821;50.936;6.854;2022-09-16T03:22:16;8.15;;;3.05;;
3613;SDS011;1821;50.936;6.854;2022-09-16T03:26:34;8.93;;;2.90;;
3613;SDS011;1821;50.936;6.854;2022-09-16T03:27:22;8.00;;;2.90;;
3613;SDS011;1821;50.936;6.854;2022-09-16T03:28:23;9.13;;;2.53;;
3613;SDS011;1821;50.936;6.854;2022-09-16T03:29:17;5.93;;;2.80;;
3613;SDS011;1821;50.936;6.854;2022-09-16T03:30:06;6.00;;;2.50;;
3613;SDS011;1821;50.936;6.854;2022-09-16T03:30:57;8.52;;;3.08;;
3613;SDS011;1821;50.936;6.854;2022-09-16T03:31:55;6.20;;;2.58;;
3613;SDS011;1821;50.936;6.854;2022-09-16T03:33:26;9.27;;;2.80;;
3613;SDS011;1821;50.936;6.854;2022-09-16T03:35:32;5.57;;;2.85;;
3613;SDS011;1821;50.936;6.854;2022-09-16T03:36:22;11.85;;;3.08;;
3613;SDS011;1821;50.936;6.854;2022-09-16T03:37:10;5.32;;;2.20;;
3613;SDS011;1821;50.936;6.854;2022-09-16T03:37:55;8.35;;;2.67;;
3613;SDS011;1821;50.936;6.854;2022-09-16T03:38:39;7.22;;;2.40;;
3613;SDS011;1821;50.936;6.854;2022-09-16T03:39:21;8.32;;;2.92;;
3613;SDS011;1821;50.936;6.854;2022-09-16T03:40:04;7.72;;;3.00;;
3613;SDS011;1821;50.936;6.854;2022-09-16T03:40:51;5.65;;;2.30;;
3613;SDS011;1821;50.936;6.854;2022-09-16T03:41:33;7.43;;;2.78;;
3613;SDS011;1821;50.936;6.854;2022-09-16T03:42:15;6.70;;;3.33;;
3613;SDS011;1821;50.936;6.854;2022-09-16T03:42:57;8.23;;;2.83;;
3613;SDS011;1821;50.936;6.854;2022-09-16T03:43:39;9.60;;;2.40;;
3613;SDS011;1821;50.936;6.854;2022-09-16T03:44:28;4.05;;;2.45;;
3613;SDS011;1821;50.936;6.854;2022-09-16T03:45:13;5.60;;;2.42;;
3613;SDS011;1821;50.936;6.854;2022-09-16T03:45:57;4.70;;;2.20;;
3613;SDS011;1821;50.936;6.854;2022-09-16T03:46:38;6.68;;;2.55;;
3613;SDS011;1821;50.936;6.854;2022-09-16T03:47:20;7.15;;;2.75;;
3613;SDS011;1821;50.936;6.854;2022-09-16T03:48:02;5.10;;;2.55;;
3613;SDS011;1821;50.936;6.854;2022-09-16T03:48:44;4.75;;;2.60;;
3613;SDS011;1821;50.936;6.854;2022-09-16T03:49:25;6.00;;;2.60;;
3613;SDS011;1821;50.936;6.854;2022-09-16T03:50:07;6.95;;;3.03;;
3613;SDS011;1821;50.936;6.854;2022-09-16T03:50:49;8.88;;;3.03;;
3613;SDS011;1821;50.936;6.854;2022-09-16T03:51:31;9.32;;;2.80;;
3613;SDS011;1821;50.936;6.854;2022-09-16T03:52:12;8.82;;;3.35;;
3613;SDS011;1821;50.936;6.854;2022-09-16T03:52:54;8.13;;;3.33;;
3613;SDS011;1821;50.936;6.854;2022-09-16T03:53:36;6.65;;;2.88;;
3613;SDS011;1821;50.936;6.854;2022-09-16T03:54:18;7.93;;;3.03;;
3613;SDS011;1821;50.936;6.854;2022-09-16T03:54:59;8.88;;;2.90;;
3613;SDS011;1821;50.936;6.854;2022-09-16T03:55:41;10.15;;;3.20;;
3613;SDS011;1821;50.936;6.854;2022-09-16T03:56:23;5.55;;;2.90;;
3613;SDS011;1821;50.936;6.854;2022-09-16T03:57:05;4.95;;;2.55;;
3613;SDS011;1821;50.936;6.854;2022-09-16T03:57:46;6.30;;;3.27;;
3613;SDS011;1821;50.936;6.854;2022-09-16T03:58:28;7.75;;;3.47;;
3613;SDS011;1821;50.936;6.854;2022-09-16T03:59:10;6.95;;;3.00;;
3613;SDS011;1821;50.936;6.854;2022-09-16T03:59:51;7.30;;;2.80;;
3613;SDS011;1821;50.936;6.854;2022-09-16T04:00:33;6.50;;;2.97;;
3613;SDS011;1821;50.936;6.854;2022-09-16T04:01:15;5.82;;;2.92;;
3613;SDS011;1821;50.936;6.854;2022-09-16T04:01:57;7.97;;;2.90;;
3613;SDS011;1821;50.936;6.854;2022-09-16T04:02:39;8.60;;;3.00;;
3613;SDS011;1821;50.936;6.854;2022-09-16T04:03:21;6.72;;;3.10;;
3613;SDS011;1821;50.936;6.854;2022-09-16T04:04:02;9.35;;;3.00;;
3613;SDS011;1821;50.936;6.854;2022-09-16T04:04:44;8.82;;;3.17;;
3613;SDS011;1821;50.936;6.854;2022-09-16T04:05:26;10.00;;;2.65;;
3613;SDS011;1821;50.936;6.854;2022-09-16T04:06:08;8.52;;;2.70;;
3613;SDS011;1821;50.936;6.854;2022-09-16T04:06:50;5.85;;;3.30;;
3613;SDS011;1821;50.936;6.854;2022-09-16T04:07:32;8.45;;;3.75;;
3613;SDS011;1821;50.936;6.854;2022-09-16T04:08:13;6.15;;;2.85;;
3613;SDS011;1821;50.936;6.854;2022-09-16T04:08:55;6.45;;;2.85;;
3613;SDS011;1821;50.936;6.854;2022-09-16T04:09:39;5.90;;;2.60;;
3613;SDS011;1821;50.936;6.854;2022-09-16T04:10:21;8.90;;;3.22;;
3613;SDS011;1821;50.936;6.854;2022-09-16T04:11:03;8.15;;;3.25;;
3613;SDS011;1821;50.936;6.854;2022-09-16T04:11:46;6.60;;;3.10;;
3613;SDS011;1821;50.936;6.854;2022-09-16T04:12:28;5.93;;;3.00;;
3613;SDS011;1821;50.936;6.854;2022-09-16T04:13:09;6.90;;;2.85;;
3613;SDS011;1821;50.936;6.854;2022-09-16T04:13:51;12.95;;;3.58;;
3613;SDS011;1821;50.936;6.854;2022-09-16T04:14:33;11.75;;;2.97;;
3613;SDS011;1821;50.936;6.854;2022-09-16T04:15:15;8.20;;;2.88;;
3613;SDS011;1821;50.936;6.854;2022-09-16T04:15:57;9.25;;;2.92;;
3613;SDS011;1821;50.936;6.854;2022-09-16T04:16:40;8.65;;;2.90;;
3613;SDS011;1821;50.936;6.854;2022-09-16T04:17:25;8.77;;;2.70;;
3613;SDS011;1821;50.936;6.854;2022-09-16T04:18:07;7.20;;;2.75;;
3613;SDS011;1821;50.936;6.854;2022-09-16T04:18:48;7.22;;;2.53;;
3613;SDS011;1821;50.936;6.854;2022-09-16T04:19:30;7.53;;;2.55;;
3613;SDS011;1821;50.936;6.854;2022-09-16T04:20:13;6.75;;;2.90;;
3613;SDS011;1821;50.936;6.854;2022-09-16T04:20:58;7.65;;;2.90;;
3613;SDS011;1821;50.936;6.854;2022-09-16T04:21:41;6.32;;;2.75;;
3613;SDS011;1821;50.936;6.854;2022-09-16T04:22:23;6.70;;;2.80;;
3613;SDS011;1821;50.936;6.854;2022-09-16T04:23:05;7.72;;;2.70;;
3613;SDS011;1821;50.936;6.854;2022-09-16T04:23:46;7.20;;;2.90;;
3613;SDS011;1821;50.936;6.854;2022-09-16T04:24:29;4.90;;;2.80;;
3613;SDS011;1821;50.936;6.854;2022-09-16T04:25:11;7.13;;;3.00;;
3613;SDS011;1821;50.936;6.854;2022-09-16T04:25:59;8.18;;;2.67;;
3613;SDS011;1821;50.936;6.854;2022-09-16T04:26:42;6.82;;;2.72;;
3613;SDS011;1821;50.936;6.854;2022-09-16T04:27:24;5.30;;;2.30;;
3613;SDS011;1821;50.936;6.854;2022-09-16T04:28:06;8.18;;;2.47;;
3613;SDS011;1821;50.936;6.854;2022-09-16T04:28:50;10.45;;;2.65;;
3613;SDS011;1821;50.936;6.854;2022-09-16T04:29:34;8.10;;;2.80;;
3613;SDS011;1821;50.936;6.854;2022-09-16T04:30:16;6.43;;;2.63;;
3613;SDS011;1821;50.936;6.854;2022-09-16T04:31:00;6.93;;;2.90;;
3613;SDS011;1821;50.936;6.854;2022-09-16T04:31:43;6.70;;;2.50;;
3613;SDS011;1821;50.936;6.854;2022-09-16T04:32:25;5.68;;;2.80;;
3613;SDS011;1821;50.936;6.854;2022-09-16T04:33:07;6.38;;;2.58;;
3613;SDS011;1821;50.936;6.854;2022-09-16T04:33:48;6.25;;;2.70;;
3613;SDS011;1821;50.936;6.854;2022-09-16T04:34:31;7.75;;;2.70;;
3613;SDS011;1821;50.936;6.854;2022-09-16T04:35:13;6.85;;;2.47;;
3613;SDS011;1821;50.936;6.854;2022-09-16T04:36:00;8.48;;;2.38;;
3613;SDS011;1821;50.936;6.854;2022-09-16T04:36:50;7.15;;;2.70;;
3613;SDS011;1821;50.936;6.854;2022-09-16T04:37:31;7.07;;;2.80;;
3613;SDS011;1821;50.936;6.854;2022-09-16T04:38:13;6.97;;;2.70;;
3613;SDS011;1821;50.936;6.854;2022-09-16T04:38:55;8.75;;;2.97;;
3613;SDS011;1821;50.936;6.854;2022-09-16T04:39:36;10.82;;;2.80;;
3613;SDS011;1821;50.936;6.854;2022-09-16T04:40:18;10.27;;;2.97;;
3613;SDS011;1821;50.936;6.854;2022-09-16T04:41:19;14.48;;;3.08;;
3613;SDS011;1821;50.936;6.854;2022-09-16T04:42:03;12.73;;;2.90;;
3613;SDS011;1821;50.936;6.854;2022-09-16T04:42:48;11.45;;;2.70;;
3613;SDS011;1821;50.936;6.854;2022-09-16T04:43:31;9.00;;;2.90;;
3613;SDS011;1821;50.936;6.854;2022-09-16T04:44:13;8.82;;;3.05;;
3613;SDS011;1821;50.936;6.854;2022-09-16T04:44:55;8.85;;;2.75;;
3613;SDS011;1821;50.936;6.854;2022-09-16T04:45:37;10.82;;;2.90;;
3613;SDS011;1821;50.936;6.854;2022-09-16T04:46:19;8.98;;;2.90;;
3613;SDS011;1821;50.936;6.854;2022-09-16T04:47:01;10.32;;;3.05;;
3613;SDS011;1821;50.936;6.854;2022-09-16T04:47:43;7.60;;;2.90;;
3613;SDS011;1821;50.936;6.854;2022-09-16T04:48:25;5.70;;;2.60;;
3613;SDS011;1821;50.936;6.854;2022-09-16T04:49:06;7.47;;;2.72;;
3613;SDS011;1821;50.936;6.854;2022-09-16T04:49:48;7.93;;;2.90;;
3613;SDS011;1821;50.936;6.854;2022-09-16T04:50:30;9.75;;;3.00;;
3613;SDS011;1821;50.936;6.854;2022-09-16T04:51:12;10.40;;;2.80;;
3613;SDS011;1821;50.936;6.854;2022-09-16T04:51:53;8.90;;;2.70;;
3613;SDS011;1821;50.936;6.854;2022-09-16T04:52:35;8.13;;;2.65;;
3613;SDS011;1821;50.936;6.854;2022-09-16T04:53:17;6.50;;;2.70;;
3613;SDS011;1821;50.936;6.854;2022-09-16T04:54:00;10.68;;;2.85;;
3613;SDS011;1821;50.936;6.854;2022-09-16T04:54:42;12.38;;;3.60;;
3613;SDS011;1821;50.936;6.854;2022-09-16T04:55:23;12.07;;;3.40;;
3613;SDS011;1821;50.936;6.854;2022-09-16T04:56:15;10.40;;;3.17;;
3613;SDS011;1821;50.936;6.854;2022-09-16T04:56:58;6.38;;;2.70;;
3613;SDS011;1821;50.936;6.854;2022-09-16T04:57:41;11.90;;;2.60;;
3613;SDS011;1821;50.936;6.854;2022-09-16T04:58:23;16.00;;;2.75;;
3613;SDS011;1821;50.936;6.854;2022-09-16T04:59:04;9.18;;;2.70;;
3613;SDS011;1821;50.936;6.854;2022-09-16T04:59:46;7.45;;;2.60;;
3613;SDS011;1821;50.936;6.854;2022-09-16T05:00:28;10.68;;;3.10;;
3613;SDS011;1821;50.936;6.854;2022-09-16T05:01:11;10.18;;;2.72;;
3613;SDS011;1821;50.936;6.854;2022-09-16T05:01:54;11.55;;;2.40;;
3613;SDS011;1821;50.936;6.854;2022-09-16T05:02:37;11.00;;;2.80;;
3613;SDS011;1821;50.936;6.854;2022-09-16T05:03:19;7.32;;;3.13;;
3613;SDS011;1821;50.936;6.854;2022-09-16T05:04:02;8.20;;;3.10;;
3613;SDS011;1821;50.936;6.854;2022-09-16T05:04:45;8.52;;;2.75;;
3613;SDS011;1821;50.936;6.854;2022-09-16T05:05:27;8.85;;;3.05;;
3613;SDS011;1821;50.936;6.854;2022-09-16T05:06:10;6.85;;;2.80;;
3613;SDS011;1821;50.936;6.854;2022-09-16T05:07:00;7.55;;;2.88;;
3613;SDS011;1821;50.936;6.854;2022-09-16T05:07:42;8.00;;;2.80;;
3613;SDS011;1821;50.936;6.854;2022-09-16T05:08:23;5.90;;;2.50;;
3613;SDS011;1821;50.936;6.854;2022-09-16T05:09:05;7.20;;;2.60;;
3613;SDS011;1821;50.936;6.854;2022-09-16T05:09:47;8.20;;;3.00;;
3613;SDS011;1821;50.936;6.854;2022-09-16T05:10:29;8.57;;;2.85;;
3613;SDS011;1821;50.936;6.854;2022-09-16T05:11:11;10.30;;;2.83;;
3613;SDS011;1821;50.936;6.854;2022-09-16T05:11:55;11.95;;;2.80;;
3613;SDS011;1821;50.936;6.854;2022-09-16T05:12:36;10.50;;;2.80;;
3613;SDS011;1821;50.936;6.854;2022-09-16T05:13:18;7.25;;;3.00;;
3613;SDS011;1821;50.936;6.854;2022-09-16T05:14:00;9.70;;;3.10;;
3613;SDS011;1821;50.936;6.854;2022-09-16T05:14:43;9.15;;;3.08;;
3613;SDS011;1821;50.936;6.854;2022-09-16T05:15:25;10.70;;;2.78;;
3613;SDS011;1821;50.936;6.854;2022-09-16T05:16:08;11.15;;;2.90;;
3613;SDS011;1821;50.936;6.854;2022-09-16T05:16:54;8.13;;;2.78;;
3613;SDS011;1821;50.936;6.854;2022-09-16T05:17:36;9.27;;;2.50;;
3613;SDS011;1821;50.936;6.854;2022-09-16T05:18:32;10.40;;;2.90;;
3613;SDS011;1821;50.936;6.854;2022-09-16T05:19:14;10.30;;;2.75;;
3613;SDS011;1821;50.936;6.854;2022-09-16T05:19:56;8.18;;;2.63;;
3613;SDS011;1821;50.936;6.854;2022-09-16T05:20:38;10.48;;;3.30;;
3613;SDS011;1821;50.936;6.854;2022-09-16T05:21:21;5.22;;;2.33;;
3613;SDS011;1821;50.936;6.854;2022-09-16T05:22:04;12.35;;;2.80;;
3613;SDS011;1821;50.936;6.854;2022-09-16T05:22:47;10.63;;;3.28;;
3613;SDS011;1821;50.936;6.854;2022-09-16T05:23:31;9.02;;;2.40;;
3613;SDS011;1821;50.936;6.854;2022-09-16T05:24:13;9.70;;;2.80;;
3613;SDS011;1821;50.936;6.854;2022-09-16T05:24:55;9.00;;;2.70;;
3613;SDS011;1821;50.936;6.854;2022-09-16T05:25:36;7.78;;;2.90;;
3613;SDS011;1821;50.936;6.854;2022-09-16T05:26:19;7.05;;;2.50;;
3613;SDS011;1821;50.936;6.854;2022-09-16T05:27:06;6.15;;;2.42;;